Time;durP1;ratioP1;P1;durP2;ratioP2;P2;SDS_P1;SDS_P2;PMS_P1;PMS_P2;Temp;Humidity;BMP_temperature;BMP_pressure;BME280_temperature;BME280_humidity;BME280_pressure;Samples;Min_cycle;Max_cycle;Signal;HPM_P1;HPM_P2
2021/08/19 00:00:56;;;;;;;0.60;0.50;;;24.30;54.00;;;;;;6241038;28;20087;-72
2021/08/19 00:03:57;;;;;;;1.35;0.50;;;24.30;54.10;;;;;;6240831;28;20060;-72
2021/08/19 00:06:57;;;;;;;0.50;0.50;;;24.30;53.90;;;;;;6238712;28;20083;-72
2021/08/19 00:09:58;;;;;;;0.80;0.60;;;24.30;54.10;;;;;;6240277;28;20026;-72
2021/08/19 00:12:59;;;;;;;0.40;0.40;;;24.30;54.10;;;;;;6240481;28;20021;-72
2021/08/19 00:16:00;;;;;;;0.82;0.52;;;24.30;54.10;;;;;;6237629;28;20057;-72
2021/08/19 00:19:00;;;;;;;1.10;0.60;;;24.30;54.10;;;;;;6240269;28;20503;-71
2021/08/19 00:22:02;;;;;;;0.52;0.52;;;24.30;54.10;;;;;;6241103;28;20033;-72
2021/08/19 00:25:05;;;;;;;0.80;0.68;;;24.30;54.00;;;;;;6239996;28;20025;-72
2021/08/19 00:28:05;;;;;;;0.77;0.60;;;24.30;54.10;;;;;;6239850;28;20534;-72
2021/08/19 00:31:06;;;;;;;0.32;0.32;;;24.30;54.10;;;;;;6239625;28;20026;-72
2021/08/19 00:34:06;;;;;;;0.82;0.60;;;24.30;54.10;;;;;;6239419;28;20036;-72
2021/08/19 00:37:08;;;;;;;0.77;0.57;;;24.30;54.10;;;;;;6240713;28;20385;-72
2021/08/19 00:40:09;;;;;;;0.65;0.50;;;24.30;54.10;;;;;;6239780;28;20025;-72
2021/08/19 00:43:10;;;;;;;0.73;0.50;;;24.30;54.10;;;;;;6236479;28;20029;-71
2021/08/19 00:46:31;;;;;;;0.73;0.50;;;24.30;54.10;;;;;;6239321;28;20041;-72
2021/08/19 00:49:32;;;;;;;0.90;0.55;;;24.30;54.10;;;;;;6239105;28;20213;-71
2021/08/19 00:52:33;;;;;;;0.70;0.50;;;24.30;54.10;;;;;;6240302;28;20018;-71
2021/08/19 00:55:34;;;;;;;0.60;0.50;;;24.30;54.10;;;;;;6238998;28;20485;-72
2021/08/19 00:58:36;;;;;;;0.45;0.40;;;24.30;54.10;;;;;;6238826;28;20083;-71
2021/08/19 01:01:37;;;;;;;0.52;0.52;;;24.30;54.10;;;;;;6237550;28;20038;-72
2021/08/19 01:04:42;;;;;;;0.45;0.40;;;24.30;54.10;;;;;;6238983;28;20102;-71
2021/08/19 01:07:45;;;;;;;0.52;0.52;;;24.30;54.20;;;;;;6238845;28;20314;-71
2021/08/19 01:10:45;;;;;;;0.60;0.60;;;24.30;54.10;;;;;;6239149;28;20087;-74
2021/08/19 01:13:47;;;;;;;0.73;0.60;;;24.30;54.10;;;;;;6238577;28;20615;-73
2021/08/19 01:16:49;;;;;;;0.40;0.40;;;24.30;54.00;;;;;;6239355;28;20026;-72
2021/08/19 01:19:49;;;;;;;0.50;0.50;;;24.30;54.00;;;;;;6238485;28;20233;-72
2021/08/19 01:22:50;;;;;;;0.68;0.60;;;24.30;54.10;;;;;;6238948;28;20117;-72
2021/08/19 01:25:51;;;;;;;0.50;0.50;;;24.30;54.20;;;;;;6238193;28;20518;-71
2021/08/19 01:28:55;;;;;;;0.57;0.40;;;24.30;54.00;;;;;;6238719;28;20068;-72
2021/08/19 01:32:00;;;;;;;0.85;0.60;;;24.30;54.20;;;;;;6238863;28;20080;-72
2021/08/19 01:35:01;;;;;;;0.65;0.60;;;24.30;54.10;;;;;;6237956;28;20026;-71
2021/08/19 01:38:02;;;;;;;0.90;0.68;;;24.30;54.10;;;;;;6238628;28;20358;-72
2021/08/19 01:41:03;;;;;;;1.42;0.60;;;24.30;54.10;;;;;;6233603;28;20034;-72
2021/08/19 01:44:03;;;;;;;1.48;0.68;;;24.30;54.20;;;;;;6235251;28;20033;-71
2021/08/19 01:47:05;;;;;;;0.57;0.50;;;24.30;54.20;;;;;;6238503;28;20037;-72
2021/08/19 01:50:06;;;;;;;0.75;0.68;;;24.30;54.10;;;;;;6238291;28;20032;-72
2021/08/19 01:53:06;;;;;;;0.70;0.50;;;24.30;54.10;;;;;;6238550;28;20038;-72
2021/08/19 01:56:07;;;;;;;0.93;0.63;;;24.30;54.10;;;;;;6238586;28;20056;-72
2021/08/19 01:59:07;;;;;;;0.70;0.70;;;24.30;54.20;;;;;;6238864;28;20045;-72
2021/08/19 02:02:08;;;;;;;1.10;0.80;;;24.30;54.80;;;;;;6238296;28;20087;-72
2021/08/19 02:05:08;;;;;;;0.73;0.52;;;24.30;54.30;;;;;;6237567;28;20452;-72
2021/08/19 02:08:09;;;;;;;0.47;0.47;;;24.30;54.30;;;;;;6237025;28;20033;-72
2021/08/19 02:11:10;;;;;;;1.08;0.68;;;24.30;54.30;;;;;;6238368;28;20301;-73
2021/08/19 02:14:11;;;;;;;0.90;0.60;;;24.30;54.30;;;;;;6241376;28;20033;-72
2021/08/19 02:17:12;;;;;;;0.90;0.75;;;24.30;54.40;;;;;;6243906;28;20473;-73
2021/08/19 02:20:12;;;;;;;0.55;0.55;;;24.30;54.40;;;;;;6243648;28;20033;-72
2021/08/19 02:23:13;;;;;;;0.50;0.50;;;24.30;54.40;;;;;;6243942;28;20524;-72
2021/08/19 02:26:13;;;;;;;0.70;0.60;;;24.30;54.40;;;;;;6242958;28;20030;-72
2021/08/19 02:29:14;;;;;;;1.27;0.60;;;24.30;54.30;;;;;;6243856;28;20037;-72
2021/08/19 02:32:15;;;;;;;0.60;0.50;;;24.30;54.30;;;;;;6243191;28;20412;-72
2021/08/19 02:35:16;;;;;;;0.70;0.70;;;24.30;54.40;;;;;;6242529;28;20397;-72
2021/08/19 02:38:16;;;;;;;1.02;0.70;;;24.30;54.40;;;;;;6242360;28;20040;-72
2021/08/19 02:41:17;;;;;;;0.60;0.60;;;24.30;54.40;;;;;;6242079;28;20606;-72
2021/08/19 02:44:17;;;;;;;0.60;0.60;;;24.30;54.20;;;;;;6242857;28;20033;-72
2021/08/19 02:47:18;;;;;;;0.50;0.50;;;24.30;54.40;;;;;;6242977;28;20035;-72
2021/08/19 02:50:20;;;;;;;2.38;0.73;;;24.30;54.40;;;;;;6242289;28;20493;-72
2021/08/19 02:53:20;;;;;;;0.68;0.60;;;24.20;54.20;;;;;;6242324;28;20029;-72
2021/08/19 02:56:22;;;;;;;0.60;0.60;;;24.20;54.20;;;;;;6241973;28;20059;-72
2021/08/19 02:59:22;;;;;;;0.68;0.60;;;24.30;54.40;;;;;;6242087;28;20048;-72
2021/08/19 03:02:23;;;;;;;0.77;0.60;;;24.30;54.40;;;;;;6242111;28;20034;-72
2021/08/19 03:05:23;;;;;;;1.90;0.68;;;24.30;54.40;;;;;;6240670;28;20037;-72
2021/08/19 03:08:24;;;;;;;0.63;0.60;;;24.30;54.40;;;;;;6241889;28;20029;-72
2021/08/19 03:11:24;;;;;;;0.68;0.60;;;24.30;54.40;;;;;;6241959;28;20041;-71
2021/08/19 03:14:25;;;;;;;0.68;0.60;;;24.30;54.40;;;;;;6238963;28;20057;-72
2021/08/19 03:17:27;;;;;;;0.60;0.60;;;24.30;54.40;;;;;;6235039;28;20067;-72
2021/08/19 03:20:27;;;;;;;0.63;0.50;;;24.20;54.30;;;;;;6242020;28;20025;-72
2021/08/19 03:23:28;;;;;;;0.80;0.60;;;24.20;54.30;;;;;;6240995;28;20021;-72
2021/08/19 03:26:28;;;;;;;0.70;0.60;;;24.30;54.40;;;;;;6242061;28;20116;-72
2021/08/19 03:29:32;;;;;;;0.43;0.43;;;24.30;54.30;;;;;;6240464;28;20602;-72
2021/08/19 03:32:32;;;;;;;0.70;0.60;;;24.30;54.40;;;;;;6241637;28;20787;-72
2021/08/19 03:35:33;;;;;;;0.45;0.45;;;24.30;54.40;;;;;;6240982;28;20053;-73
2021/08/19 03:38:34;;;;;;;0.52;0.52;;;24.20;54.30;;;;;;6241529;28;20025;-72
2021/08/19 03:41:34;;;;;;;0.75;0.60;;;24.20;54.40;;;;;;6241697;28;20041;-72
2021/08/19 03:44:35;;;;;;;0.65;0.50;;;24.30;54.50;;;;;;6239954;28;20029;-73
2021/08/19 03:47:36;;;;;;;0.68;0.68;;;24.20;54.30;;;;;;6241343;28;20495;-72
2021/08/19 03:50:36;;;;;;;0.60;0.60;;;24.30;54.40;;;;;;6241621;28;20025;-72
2021/08/19 03:53:37;;;;;;;1.48;0.65;;;24.20;54.30;;;;;;6241036;28;20397;-72
2021/08/19 03:56:41;;;;;;;1.20;0.70;;;24.20;54.40;;;;;;6240966;28;20136;-72
2021/08/19 04:00:34;;;;;;;0.73;0.57;;;24.20;54.40;;;;;;6240292;28;20044;-72
2021/08/19 04:03:36;;;;;;;0.77;0.50;;;24.20;54.40;;;;;;6239937;28;20033;-72
2021/08/19 04:06:36;;;;;;;0.30;0.30;;;24.30;54.40;;;;;;6240622;28;20040;-72
2021/08/19 04:09:37;;;;;;;0.50;0.50;;;24.30;54.50;;;;;;6240640;28;20104;-72
2021/08/19 04:12:38;;;;;;;0.85;0.60;;;24.20;54.40;;;;;;6236071;28;20052;-72
2021/08/19 04:15:38;;;;;;;0.50;0.50;;;24.20;54.30;;;;;;6240127;28;20026;-72
2021/08/19 04:18:39;;;;;;;0.85;0.70;;;24.30;54.50;;;;;;6240468;28;20101;-71
2021/08/19 04:21:39;;;;;;;0.70;0.60;;;24.30;54.60;;;;;;6240949;28;20099;-72
2021/08/19 04:24:40;;;;;;;0.90;0.68;;;24.30;54.50;;;;;;6240139;28;20115;-72
2021/08/19 04:27:40;;;;;;;0.63;0.50;;;24.30;54.50;;;;;;6240957;28;20083;-72
2021/08/19 04:30:41;;;;;;;1.63;0.80;;;24.30;54.50;;;;;;6239405;28;20574;-72
2021/08/19 04:33:42;;;;;;;0.60;0.60;;;24.30;54.40;;;;;;6240700;28;20533;-72
2021/08/19 04:36:42;;;;;;;0.70;0.52;;;24.30;54.50;;;;;;6238439;28;20022;-71
2021/08/19 04:39:43;;;;;;;0.70;0.60;;;24.30;54.40;;;;;;6240131;28;20029;-72
2021/08/19 04:42:43;;;;;;;0.70;0.57;;;24.30;54.50;;;;;;6240106;28;20052;-71
2021/08/19 04:45:44;;;;;;;1.05;0.60;;;24.30;54.50;;;;;;6240341;28;20542;-72
2021/08/19 04:48:44;;;;;;;0.85;0.77;;;24.30;54.50;;;;;;6239920;28;20036;-72
2021/08/19 04:51:45;;;;;;;0.63;0.52;;;24.20;54.40;;;;;;6239959;28;20025;-72
2021/08/19 04:54:46;;;;;;;1.02;0.70;;;24.20;54.50;;;;;;6240255;28;20030;-72
2021/08/19 04:58:02;;;;;;;0.60;0.50;;;24.30;54.60;;;;;;6335402;27;20737;-70
2021/08/19 05:01:03;;;;;;;0.68;0.63;;;24.20;54.50;;;;;;6317957;28;20066;-71
2021/08/19 05:04:03;;;;;;;0.50;0.50;;;24.20;54.50;;;;;;6336291;28;20024;-70
2021/08/19 05:07:04;;;;;;;1.27;0.73;;;24.30;54.60;;;;;;6336017;28;20032;-70
2021/08/19 05:10:05;;;;;;;0.60;0.43;;;24.20;54.50;;;;;;6350912;28;20370;-71
2021/08/19 05:13:06;;;;;;;0.90;0.70;;;24.30;54.60;;;;;;6354460;27;20016;-70
2021/08/19 05:16:06;;;;;;;0.60;0.60;;;24.30;54.50;;;;;;6345918;28;20086;-70
2021/08/19 05:19:07;;;;;;;0.45;0.45;;;24.20;54.50;;;;;;6343306;28;20397;-70
2021/08/19 05:22:07;;;;;;;0.60;0.60;;;24.20;54.50;;;;;;6346939;28;20446;-70
2021/08/19 05:25:08;;;;;;;0.50;0.50;;;24.20;54.50;;;;;;6353521;28;20115;-71
2021/08/19 05:28:09;;;;;;;1.13;0.70;;;24.20;54.50;;;;;;6340390;28;20504;-70
2021/08/19 05:31:09;;;;;;;0.57;0.57;;;24.30;54.60;;;;;;6342208;28;20028;-70
2021/08/19 05:34:10;;;;;;;2.60;0.73;;;24.20;54.50;;;;;;6343594;28;20032;-70
2021/08/19 05:37:11;;;;;;;0.40;0.40;;;24.30;54.80;;;;;;6343070;28;20455;-70
2021/08/19 05:40:12;;;;;;;0.50;0.50;;;24.30;54.50;;;;;;6344786;28;20453;-70
2021/08/19 05:43:12;;;;;;;0.60;0.60;;;24.30;54.40;;;;;;6339649;28;20114;-70
2021/08/19 05:46:13;;;;;;;2.65;0.70;;;24.30;54.20;;;;;;6338697;28;20226;-70
2021/08/19 05:49:13;;;;;;;0.70;0.40;;;24.40;54.20;;;;;;6344370;28;20032;-70
2021/08/19 05:52:15;;;;;;;1.65;0.55;;;24.40;54.20;;;;;;6351479;28;20023;-70
2021/08/19 05:55:16;;;;;;;1.45;0.60;;;24.40;54.20;;;;;;6358250;28;20098;-70
2021/08/19 05:58:16;;;;;;;1.33;0.70;;;24.40;54.20;;;;;;6331836;28;20016;-70
2021/08/19 06:01:17;;;;;;;1.20;0.75;;;24.40;54.20;;;;;;6339163;28;20033;-70
2021/08/19 06:04:18;;;;;;;1.27;0.70;;;24.40;54.20;;;;;;6360639;28;20549;-71
2021/08/19 06:07:18;;;;;;;2.65;0.40;;;24.40;54.30;;;;;;6348998;28;20030;-70
2021/08/19 06:10:19;;;;;;;0.57;0.50;;;24.40;54.50;;;;;;6326446;28;20031;-70
2021/08/19 06:13:19;;;;;;;1.55;0.70;;;24.40;54.50;;;;;;6318116;28;20031;-71
2021/08/19 06:16:20;;;;;;;1.13;0.60;;;24.40;54.50;;;;;;6324563;28;20070;-71
2021/08/19 06:19:20;;;;;;;0.50;0.50;;;24.40;54.50;;;;;;6327902;28;20093;-72
2021/08/19 06:22:21;;;;;;;7.32;0.82;;;24.40;54.60;;;;;;6340594;28;20023;-70
2021/08/19 06:25:23;;;;;;;1.10;0.90;;;24.40;54.60;;;;;;6339656;28;20164;-71
2021/08/19 06:28:24;;;;;;;1.33;0.70;;;24.40;54.60;;;;;;6327206;28;20024;-71
2021/08/19 06:31:25;;;;;;;0.90;0.60;;;24.40;54.60;;;;;;6341349;28;20023;-70
2021/08/19 06:34:25;;;;;;;1.77;0.63;;;24.40;54.60;;;;;;6345863;28;20076;-70
2021/08/19 06:37:26;;;;;;;1.13;0.70;;;24.40;54.70;;;;;;6346754;28;20023;-70
2021/08/19 06:40:26;;;;;;;2.50;0.77;;;24.40;54.70;;;;;;6342023;28;20373;-71
2021/08/19 06:43:27;;;;;;;1.90;0.60;;;24.40;54.80;;;;;;6320350;28;20028;-71
2021/08/19 06:46:27;;;;;;;2.00;0.70;;;24.40;54.70;;;;;;6328683;28;20077;-71
2021/08/19 06:49:28;;;;;;;2.53;0.80;;;24.40;54.70;;;;;;6319545;28;20558;-70
2021/08/19 06:52:29;;;;;;;2.05;0.90;;;24.40;54.80;;;;;;6338892;28;20028;-70
2021/08/19 06:55:29;;;;;;;0.93;0.70;;;24.40;54.80;;;;;;6343065;28;20512;-70
2021/08/19 06:58:31;;;;;;;1.23;0.68;;;24.40;54.80;;;;;;6320848;28;20020;-71
2021/08/19 07:01:31;;;;;;;2.22;0.70;;;24.40;54.80;;;;;;6319412;28;20047;-71
2021/08/19 07:04:32;;;;;;;1.38;0.77;;;24.30;54.70;;;;;;6320860;28;20080;-71
2021/08/19 07:07:33;;;;;;;1.80;0.77;;;24.40;54.80;;;;;;6319051;28;20054;-71
2021/08/19 07:10:33;;;;;;;0.93;0.80;;;24.30;54.80;;;;;;6321112;28;20508;-70
2021/08/19 07:13:34;;;;;;;1.70;0.80;;;24.40;54.90;;;;;;6339838;28;20028;-70
2021/08/19 07:16:34;;;;;;;1.75;0.85;;;24.30;54.80;;;;;;6325374;28;20108;-71
2021/08/19 07:19:35;;;;;;;0.55;0.50;;;24.30;54.80;;;;;;6344799;28;20098;-71
2021/08/19 07:22:36;;;;;;;0.82;0.60;;;24.30;54.80;;;;;;6345725;28;20099;-71
2021/08/19 07:25:36;;;;;;;1.13;0.55;;;24.30;54.70;;;;;;6345445;28;20024;-71
2021/08/19 07:28:37;;;;;;;0.50;0.50;;;24.30;54.80;;;;;;6345446;28;20054;-71
2021/08/19 07:31:39;;;;;;;1.77;0.60;;;24.40;54.90;;;;;;6340740;28;20413;-71
2021/08/19 07:34:39;;;;;;;0.80;0.80;;;24.30;54.80;;;;;;6320388;28;20035;-70
2021/08/19 07:37:45;;;;;;;0.98;0.70;;;24.30;54.80;;;;;;6318297;28;20024;-71
2021/08/19 07:40:48;;;;;;;2.65;0.80;;;24.30;54.80;;;;;;6318945;28;20027;-71
2021/08/19 07:43:48;;;;;;;0.80;0.80;;;24.30;54.80;;;;;;6340509;28;20016;-71
2021/08/19 07:46:49;;;;;;;1.60;0.80;;;24.30;54.80;;;;;;6321983;28;20085;-71
2021/08/19 07:49:49;;;;;;;1.10;0.88;;;24.30;54.80;;;;;;6343427;28;20034;-70
2021/08/19 07:52:50;;;;;;;0.70;0.60;;;24.30;54.90;;;;;;6345033;28;20389;-70
2021/08/19 07:55:50;;;;;;;1.65;0.70;;;24.30;54.80;;;;;;6344363;28;20054;-71
2021/08/19 07:58:51;;;;;;;1.15;0.63;;;24.30;54.90;;;;;;6344484;28;20109;-71
2021/08/19 08:01:52;;;;;;;0.60;0.60;;;24.30;54.80;;;;;;6344142;28;20099;-72
2021/08/19 08:04:53;;;;;;;1.35;0.70;;;24.30;54.80;;;;;;6327102;28;20024;-71
2021/08/19 08:07:59;;;;;;;0.65;0.60;;;24.30;54.80;;;;;;6328445;28;20031;-71
2021/08/19 08:11:00;;;;;;;0.73;0.60;;;24.30;54.80;;;;;;6328869;28;20028;-71
2021/08/19 08:14:02;;;;;;;0.70;0.60;;;24.30;54.80;;;;;;6327844;28;20073;-71
2021/08/19 08:17:02;;;;;;;0.88;0.63;;;24.30;54.80;;;;;;6317751;28;20024;-71
2021/08/19 08:20:06;;;;;;;0.52;0.50;;;24.30;54.80;;;;;;6319398;28;20381;-72
2021/08/19 08:23:07;;;;;;;0.73;0.60;;;24.30;54.80;;;;;;6338878;28;20028;-71
2021/08/19 08:26:09;;;;;;;0.60;0.60;;;24.30;54.90;;;;;;6344687;28;20082;-71
2021/08/19 08:29:09;;;;;;;0.77;0.52;;;24.30;54.80;;;;;;6344246;28;20016;-71
2021/08/19 08:32:10;;;;;;;0.55;0.55;;;24.30;54.90;;;;;;6343737;28;20055;-71
2021/08/19 08:35:12;;;;;;;0.77;0.68;;;24.30;54.90;;;;;;6343912;28;20027;-71
2021/08/19 08:38:17;;;;;;;0.77;0.70;;;24.30;54.90;;;;;;6335139;28;20115;-72
2021/08/19 08:41:19;;;;;;;0.90;0.68;;;24.30;54.90;;;;;;6318643;28;20366;-71
2021/08/19 08:44:21;;;;;;;0.80;0.80;;;24.30;54.90;;;;;;6335163;28;20103;-72
2021/08/19 08:47:23;;;;;;;1.77;0.80;;;24.30;54.90;;;;;;6343016;28;20034;-71
2021/08/19 08:50:25;;;;;;;0.75;0.60;;;24.30;54.90;;;;;;6319162;28;20025;-71
2021/08/19 08:53:26;;;;;;;1.17;0.77;;;24.30;54.90;;;;;;6324332;28;20507;-71
2021/08/19 08:56:27;;;;;;;0.63;0.50;;;24.30;54.90;;;;;;6338571;28;20048;-71
2021/08/19 08:59:27;;;;;;;1.25;0.55;;;24.30;54.90;;;;;;6331485;28;20023;-71
2021/08/19 09:02:28;;;;;;;0.70;0.65;;;24.30;54.80;;;;;;6343562;28;20051;-72
2021/08/19 09:05:37;;;;;;;1.20;0.57;;;24.30;54.90;;;;;;6323986;28;20478;-71
2021/08/19 09:08:49;;;;;;;0.68;0.60;;;24.30;54.90;;;;;;6320552;28;20099;-71
2021/08/19 09:11:55;;;;;;;0.60;0.60;;;24.30;55.00;;;;;;6342327;28;20032;-72
2021/08/19 09:14:55;;;;;;;1.27;0.75;;;24.30;54.90;;;;;;6338330;28;20110;-72
2021/08/19 09:17:57;;;;;;;0.60;0.60;;;24.30;54.90;;;;;;6342055;28;20030;-71
2021/08/19 09:20:58;;;;;;;0.75;0.57;;;24.30;54.90;;;;;;6323093;28;20016;-71
2021/08/19 09:24:12;;;;;;;0.68;0.57;;;24.30;55.00;;;;;;6319749;28;20028;-71
2021/08/19 09:27:15;;;;;;;1.67;0.65;;;24.30;55.00;;;;;;6343508;28;20481;-72
2021/08/19 09:30:27;;;;;;;0.60;0.50;;;24.30;54.90;;;;;;6343062;28;20085;-72
2021/08/19 09:33:30;;;;;;;0.60;0.60;;;24.30;54.90;;;;;;6336847;28;20524;-71
2021/08/19 09:36:34;;;;;;;1.35;0.80;;;24.30;54.90;;;;;;6316383;28;20129;-71
2021/08/19 09:39:40;;;;;;;0.70;0.60;;;24.30;54.90;;;;;;6317973;28;20083;-71
2021/08/19 09:42:41;;;;;;;0.75;0.63;;;24.30;55.00;;;;;;6319439;28;20027;-71
2021/08/19 09:45:44;;;;;;;0.73;0.70;;;24.30;54.90;;;;;;6335464;28;20024;-72
2021/08/19 09:48:45;;;;;;;0.63;0.60;;;24.30;55.00;;;;;;6348035;28;20019;-72
2021/08/19 09:52:08;;;;;;;0.82;0.70;;;24.30;54.90;;;;;;6347080;28;20494;-72
2021/08/19 09:55:24;;;;;;;0.70;0.70;;;24.30;54.90;;;;;;6346117;28;20076;-71
2021/08/19 09:58:32;;;;;;;0.65;0.60;;;24.30;54.90;;;;;;6347819;28;20019;-71
2021/08/19 10:01:34;;;;;;;0.85;0.57;;;24.30;54.90;;;;;;6326853;28;20027;-71
2021/08/19 10:04:36;;;;;;;0.55;0.52;;;24.30;54.90;;;;;;6327637;28;20480;-72
2021/08/19 10:07:37;;;;;;;0.50;0.50;;;24.30;55.00;;;;;;6320885;28;20492;-71
2021/08/19 10:10:41;;;;;;;0.70;0.70;;;24.30;55.00;;;;;;6320587;28;20031;-70
2021/08/19 10:13:43;;;;;;;0.85;0.60;;;24.30;55.00;;;;;;6321565;28;20472;-72
2021/08/19 10:16:44;;;;;;;0.70;0.50;;;24.30;55.00;;;;;;6339238;28;20495;-72
2021/08/19 10:19:45;;;;;;;0.68;0.60;;;24.30;55.00;;;;;;6345563;28;20024;-72
2021/08/19 10:22:50;;;;;;;1.40;0.80;;;24.30;54.90;;;;;;6320930;28;20023;-71
2021/08/19 10:26:09;;;;;;;0.73;0.60;;;24.30;55.00;;;;;;6331595;28;20023;-71
2021/08/19 10:29:10;;;;;;;0.60;0.60;;;24.30;55.00;;;;;;6346768;28;20463;-70
2021/08/19 10:32:29;;;;;;;0.77;0.50;;;24.30;55.00;;;;;;6325493;28;20031;-72
2021/08/19 10:35:31;;;;;;;0.85;0.60;;;24.30;55.00;;;;;;6322590;28;20038;-72
2021/08/19 10:38:31;;;;;;;0.95;0.70;;;24.30;55.00;;;;;;6320188;28;20051;-72
2021/08/19 10:41:32;;;;;;;1.00;0.70;;;24.30;55.00;;;;;;6319484;28;20020;-71
2021/08/19 10:44:40;;;;;;;0.50;0.50;;;24.30;55.00;;;;;;6319808;28;20472;-71
2021/08/19 10:47:40;;;;;;;1.08;0.60;;;24.30;55.00;;;;;;6341585;28;20028;-72
2021/08/19 10:50:43;;;;;;;1.00;0.60;;;24.30;55.00;;;;;;6340718;28;20510;-71
2021/08/19 10:53:43;;;;;;;0.70;0.50;;;24.30;55.10;;;;;;6320777;28;20497;-72
2021/08/19 10:56:45;;;;;;;0.32;0.32;;;24.30;55.00;;;;;;6332279;28;20090;-71
2021/08/19 10:59:56;;;;;;;0.73;0.68;;;24.30;55.10;;;;;;6345525;28;20030;-71
2021/08/19 11:02:57;;;;;;;0.70;0.60;;;24.30;55.10;;;;;;6346084;28;20024;-71
2021/08/19 11:05:57;;;;;;;1.05;0.68;;;24.30;55.10;;;;;;6326223;28;20494;-71
2021/08/19 11:08:59;;;;;;;1.00;0.70;;;24.30;54.90;;;;;;6335117;28;20036;-72
2021/08/19 11:12:07;;;;;;;0.93;0.80;;;24.30;55.00;;;;;;6319088;28;20028;-72
2021/08/19 11:15:10;;;;;;;0.50;0.50;;;24.30;55.00;;;;;;6319767;28;20028;-72
2021/08/19 11:18:22;;;;;;;0.63;0.57;;;24.30;55.00;;;;;;6338976;28;20023;-71
2021/08/19 11:21:23;;;;;;;1.38;0.82;;;24.30;55.00;;;;;;6344376;28;20476;-70
2021/08/19 11:24:26;;;;;;;0.73;0.70;;;24.30;55.00;;;;;;6345827;27;20028;-71
2021/08/19 11:27:27;;;;;;;0.82;0.75;;;24.30;54.90;;;;;;6345619;28;20038;-71
2021/08/19 11:30:32;;;;;;;1.73;0.95;;;24.30;55.00;;;;;;6343845;28;20024;-70
2021/08/19 11:33:32;;;;;;;0.70;0.70;;;24.30;55.00;;;;;;6324260;28;20036;-71
2021/08/19 11:36:35;;;;;;;1.27;0.80;;;24.30;55.00;;;;;;6319766;28;20039;-72
2021/08/19 11:39:35;;;;;;;0.80;0.80;;;24.30;55.00;;;;;;6320006;28;20044;-72
2021/08/19 11:42:36;;;;;;;0.90;0.80;;;24.30;55.00;;;;;;6329424;28;20058;-72
2021/08/19 11:45:36;;;;;;;0.80;0.70;;;24.30;55.00;;;;;;6344773;28;20030;-72
2021/08/19 11:48:51;;;;;;;1.17;0.95;;;24.30;55.00;;;;;;6343630;28;20081;-71
2021/08/19 11:52:01;;;;;;;1.17;0.80;;;24.30;55.00;;;;;;6332527;28;20024;-71
2021/08/19 11:55:01;;;;;;;0.90;0.73;;;24.30;55.70;;;;;;6320272;28;20543;-71
2021/08/19 11:58:27;;;;;;;1.63;0.90;;;24.30;55.00;;;;;;6331932;28;20075;-72
2021/08/19 12:01:28;;;;;;;;;;;24.30;55.10;;;;;;6344929;28;20023;-71
2021/08/19 12:04:35;;;;;;;0.80;0.80;;;24.30;55.00;;;;;;6320291;28;19908;-71
2021/08/19 12:07:40;;;;;;;2.35;0.80;;;24.30;55.10;;;;;;6325939;28;20636;-72
2021/08/19 12:10:41;;;;;;;0.90;0.90;;;24.30;55.00;;;;;;6343610;28;20039;-71
2021/08/19 12:13:42;;;;;;;0.90;0.70;;;24.30;55.10;;;;;;6331494;28;20481;-71
2021/08/19 12:16:51;;;;;;;1.00;0.80;;;24.30;55.10;;;;;;6317999;28;20028;-70
2021/08/19 12:20:16;;;;;;;0.75;0.70;;;24.30;55.10;;;;;;6338405;28;20024;-72
2021/08/19 12:23:18;;;;;;;0.90;0.80;;;24.30;55.10;;;;;;6336260;28;20067;-71
2021/08/19 12:26:18;;;;;;;1.33;0.80;;;24.30;55.10;;;;;;6318745;28;20039;-71
2021/08/19 12:29:19;;;;;;;0.98;0.70;;;24.30;55.10;;;;;;6333817;28;20084;-72
2021/08/19 12:32:29;;;;;;;1.60;1.00;;;24.30;55.10;;;;;;6342604;28;20028;-71
2021/08/19 12:35:29;;;;;;;1.20;0.90;;;24.30;55.10;;;;;;6318922;28;20047;-72
2021/08/19 12:38:30;;;;;;;1.67;0.90;;;24.30;55.10;;;;;;6325881;28;20020;-70
2021/08/19 12:41:31;;;;;;;0.90;0.73;;;24.30;55.10;;;;;;6342464;28;20027;-70
2021/08/19 12:44:31;;;;;;;1.52;0.90;;;24.30;55.10;;;;;;6319971;28;20472;-71
2021/08/19 12:47:43;;;;;;;1.15;0.90;;;24.30;55.10;;;;;;6317326;28;20326;-72
2021/08/19 12:50:44;;;;;;;1.38;0.90;;;24.30;55.10;;;;;;6317150;28;20077;-71
2021/08/19 12:54:07;;;;;;;0.77;0.77;;;24.30;55.10;;;;;;6342481;28;20034;-71
2021/08/19 12:57:08;;;;;;;0.95;0.75;;;24.30;55.10;;;;;;6343200;28;20067;-71
2021/08/19 13:00:12;;;;;;;1.00;0.90;;;24.30;55.10;;;;;;6342192;28;20026;-70
2021/08/19 13:03:16;;;;;;;0.90;0.80;;;24.30;55.10;;;;;;6342385;28;20023;-71
2021/08/19 13:06:19;;;;;;;1.73;0.93;;;24.30;55.10;;;;;;6314467;28;20024;-71
2021/08/19 13:09:20;;;;;;;0.70;0.70;;;24.30;55.10;;;;;;6325855;28;20380;-70
2021/08/19 13:12:25;;;;;;;0.52;0.52;;;24.30;55.10;;;;;;6343377;28;20019;-70
2021/08/19 13:15:27;;;;;;;1.00;0.85;;;24.30;55.10;;;;;;6339131;28;20059;-71
2021/08/19 13:18:27;;;;;;;1.00;0.63;;;24.30;55.10;;;;;;6346645;28;20016;-70
2021/08/19 13:21:28;;;;;;;1.02;0.80;;;24.30;55.10;;;;;;6348559;28;20027;-70
2021/08/19 13:24:29;;;;;;;1.10;0.90;;;24.30;55.10;;;;;;6348372;28;20022;-70
2021/08/19 13:27:29;;;;;;;1.20;0.90;;;24.30;55.10;;;;;;6348678;28;20072;-70
2021/08/19 13:30:30;;;;;;;0.70;0.70;;;24.30;55.10;;;;;;6333147;28;20119;-70
2021/08/19 13:33:31;;;;;;;0.63;0.63;;;24.30;55.10;;;;;;6323450;28;20024;-70
2021/08/19 13:36:31;;;;;;;1.20;0.80;;;24.30;55.10;;;;;;6344849;28;20028;-70
2021/08/19 13:39:37;;;;;;;0.73;0.63;;;24.30;55.10;;;;;;6346969;28;20073;-70
2021/08/19 13:42:38;;;;;;;1.45;1.02;;;24.30;55.10;;;;;;6348183;28;20026;-70
2021/08/19 13:45:39;;;;;;;1.00;0.60;;;24.30;55.10;;;;;;6334196;28;20027;-70
2021/08/19 13:48:39;;;;;;;1.50;0.98;;;24.30;55.10;;;;;;6346622;28;20020;-70
2021/08/19 13:51:40;;;;;;;1.20;0.80;;;24.30;55.10;;;;;;6346545;28;20056;-70
2021/08/19 13:54:40;;;;;;;1.48;0.82;;;24.30;55.20;;;;;;6343556;28;20024;-70
2021/08/19 13:57:41;;;;;;;1.23;0.90;;;24.30;55.10;;;;;;6322531;28;20051;-69
2021/08/19 14:00:41;;;;;;;0.60;0.60;;;24.30;55.20;;;;;;6333022;28;20377;-70
2021/08/19 14:03:43;;;;;;;1.23;1.00;;;24.30;55.20;;;;;;6341797;28;20016;-70
2021/08/19 14:06:44;;;;;;;0.70;0.70;;;24.30;55.20;;;;;;6339817;28;20043;-70
2021/08/19 14:09:45;;;;;;;0.93;0.77;;;24.30;55.10;;;;;;6323278;28;20024;-70
2021/08/19 14:12:47;;;;;;;0.85;0.70;;;24.30;55.10;;;;;;6347506;28;20032;-70
2021/08/19 14:15:48;;;;;;;1.00;0.90;;;24.30;55.20;;;;;;6318708;28;20476;-70
2021/08/19 14:18:48;;;;;;;0.90;0.70;;;24.30;55.20;;;;;;6327014;28;20059;-70
2021/08/19 14:21:49;;;;;;;1.00;0.90;;;24.30;55.10;;;;;;6334789;28;20024;-69
2021/08/19 14:24:49;;;;;;;0.77;0.70;;;24.30;55.10;;;;;;6322128;28;20054;-70
2021/08/19 14:27:50;;;;;;;1.25;0.98;;;24.30;55.10;;;;;;6345102;28;20130;-70
2021/08/19 14:30:51;;;;;;;1.17;0.75;;;24.30;55.20;;;;;;6346855;28;20028;-69
2021/08/19 14:33:53;;;;;;;1.00;0.90;;;24.30;55.10;;;;;;6345791;28;20511;-70
2021/08/19 14:36:55;;;;;;;0.65;0.60;;;24.30;55.20;;;;;;6345445;28;20135;-70
2021/08/19 14:39:55;;;;;;;1.52;0.80;;;24.30;55.20;;;;;;6346694;28;20027;-70
2021/08/19 14:42:56;;;;;;;0.98;0.80;;;24.30;55.20;;;;;;6323313;28;20057;-70
2021/08/19 14:45:56;;;;;;;0.80;0.80;;;24.30;55.20;;;;;;6320307;28;20024;-70
2021/08/19 14:48:57;;;;;;;0.70;0.70;;;24.30;55.10;;;;;;6321567;28;20028;-70
2021/08/19 14:51:58;;;;;;;1.15;0.80;;;24.30;55.10;;;;;;6335001;28;20027;-70
2021/08/19 14:54:58;;;;;;;1.30;0.80;;;24.30;55.10;;;;;;6341316;28;20020;-70
2021/08/19 14:58:01;;;;;;;1.50;1.08;;;24.30;55.20;;;;;;6320865;28;20075;-70
2021/08/19 15:01:04;;;;;;;1.05;0.70;;;24.30;55.20;;;;;;6325354;28;20558;-70
2021/08/19 15:04:04;;;;;;;0.70;0.65;;;24.30;55.10;;;;;;6338697;28;20073;-70
2021/08/19 15:07:06;;;;;;;1.50;0.80;;;24.30;55.10;;;;;;6323637;28;20457;-70
2021/08/19 15:10:08;;;;;;;1.40;0.90;;;24.30;55.20;;;;;;6320228;28;20024;-70
2021/08/19 15:13:08;;;;;;;0.88;0.75;;;24.30;55.10;;;;;;6335781;28;20032;-69
2021/08/19 15:16:09;;;;;;;0.68;0.57;;;24.30;55.20;;;;;;6320588;28;20043;-70
2021/08/19 15:19:10;;;;;;;0.75;0.73;;;24.30;55.20;;;;;;6344182;28;20024;-70
2021/08/19 15:22:12;;;;;;;1.25;0.85;;;24.30;55.20;;;;;;6339085;28;20103;-70
2021/08/19 15:25:12;;;;;;;0.80;0.68;;;24.30;55.10;;;;;;6319797;28;20101;-70
2021/08/19 15:28:13;;;;;;;1.33;0.85;;;24.30;55.20;;;;;;6334755;28;20441;-70
2021/08/19 15:31:13;;;;;;;1.23;1.00;;;24.30;55.20;;;;;;6344243;28;20024;-70
2021/08/19 15:34:14;;;;;;;1.00;0.80;;;24.30;55.20;;;;;;6341983;28;20024;-69
2021/08/19 15:37:25;;;;;;;0.80;0.80;;;24.30;55.20;;;;;;6319047;28;20373;-69
2021/08/19 15:40:25;;;;;;;0.88;0.80;;;24.30;55.90;;;;;;6319437;28;20008;-70
2021/08/19 15:43:26;;;;;;;1.23;0.70;;;24.30;55.20;;;;;;6333318;28;20066;-70
2021/08/19 15:46:26;;;;;;;0.80;0.63;;;24.30;55.20;;;;;;6345136;28;20035;-70
2021/08/19 15:49:27;;;;;;;1.45;0.70;;;24.30;55.20;;;;;;6322133;28;20027;-70